sensor_id;sensor_type;location;lat;lon;timestamp;temperature;humidity
21176;DHT22;10746;50.178;8.186;2022-09-03T00:01:17;16.30;99.90
21176;DHT22;10746;50.178;8.186;2022-09-03T00:03:48;16.30;99.90
21176;DHT22;10746;50.178;8.186;2022-09-03T00:06:22;16.20;99.90
21176;DHT22;10746;50.178;8.186;2022-09-03T00:08:53;16.20;99.90
21176;DHT22;10746;50.178;8.186;2022-09-03T00:11:26;16.20;99.90
21176;DHT22;10746;50.178;8.186;2022-09-03T00:13:59;16.10;99.90
21176;DHT22;10746;50.178;8.186;2022-09-03T00:16:33;16.10;99.90
21176;DHT22;10746;50.178;8.186;2022-09-03T00:19:03;16.10;99.90
21176;DHT22;10746;50.178;8.186;2022-09-03T00:21:37;16.00;99.90
21176;DHT22;10746;50.178;8.186;2022-09-03T00:24:08;16.10;99.90
21176;DHT22;10746;50.178;8.186;2022-09-03T00:26:41;16.10;99.90
21176;DHT22;10746;50.178;8.186;2022-09-03T00:29:12;16.00;99.90
21176;DHT22;10746;50.178;8.186;2022-09-03T00:31:43;16.10;99.90
21176;DHT22;10746;50.178;8.186;2022-09-03T00:34:16;16.00;99.90
21176;DHT22;10746;50.178;8.186;2022-09-03T00:36:47;15.90;99.90
21176;DHT22;10746;50.178;8.186;2022-09-03T00:39:16;15.80;99.90
21176;DHT22;10746;50.178;8.186;2022-09-03T00:41:52;15.90;99.90
21176;DHT22;10746;50.178;8.186;2022-09-03T00:44:43;15.90;99.90
21176;DHT22;10746;50.178;8.186;2022-09-03T00:47:18;15.90;99.90
21176;DHT22;10746;50.178;8.186;2022-09-03T00:49:57;15.90;99.90
21176;DHT22;10746;50.178;8.186;2022-09-03T00:52:39;15.80;99.90
21176;DHT22;10746;50.178;8.186;2022-09-03T00:55:20;15.90;99.90
21176;DHT22;10746;50.178;8.186;2022-09-03T00:57:55;15.90;99.90
21176;DHT22;10746;50.178;8.186;2022-09-03T01:00:24;15.90;99.90
21176;DHT22;10746;50.178;8.186;2022-09-03T01:02:59;15.90;99.90
21176;DHT22;10746;50.178;8.186;2022-09-03T01:05:38;15.90;99.90
21176;DHT22;10746;50.178;8.186;2022-09-03T01:08:19;15.80;99.90
21176;DHT22;10746;50.178;8.186;2022-09-03T01:10:55;15.80;99.90
21176;DHT22;10746;50.178;8.186;2022-09-03T01:13:28;15.70;99.90
21176;DHT22;10746;50.178;8.186;2022-09-03T01:16:06;15.60;99.90
21176;DHT22;10746;50.178;8.186;2022-09-03T01:18:40;15.60;99.90
21176;DHT22;10746;50.178;8.186;2022-09-03T01:24:35;15.70;99.90
21176;DHT22;10746;50.178;8.186;2022-09-03T01:27:17;15.70;99.90
21176;DHT22;10746;50.178;8.186;2022-09-03T01:29:52;15.60;99.90
21176;DHT22;10746;50.178;8.186;2022-09-03T01:32:26;15.50;99.90
21176;DHT22;10746;50.178;8.186;2022-09-03T01:35:05;15.60;99.90
21176;DHT22;10746;50.178;8.186;2022-09-03T01:37:40;15.60;99.90
21176;DHT22;10746;50.178;8.186;2022-09-03T01:40:17;15.60;99.90
21176;DHT22;10746;50.178;8.186;2022-09-03T01:43:05;15.60;99.90
21176;DHT22;10746;50.178;8.186;2022-09-03T01:45:42;15.50;99.90
21176;DHT22;10746;50.178;8.186;2022-09-03T01:48:29;15.50;99.90
21176;DHT22;10746;50.178;8.186;2022-09-03T01:51:06;15.50;99.90
21176;DHT22;10746;50.178;8.186;2022-09-03T01:53:50;15.50;99.90
21176;DHT22;10746;50.178;8.186;2022-09-03T01:56:30;15.40;99.90
21176;DHT22;10746;50.178;8.186;2022-09-03T01:59:08;15.30;99.90
21176;DHT22;10746;50.178;8.186;2022-09-03T02:01:42;15.30;99.90
21176;DHT22;10746;50.178;8.186;2022-09-03T02:04:16;15.40;99.90
21176;DHT22;10746;50.178;8.186;2022-09-03T02:06:45;15.30;99.90
21176;DHT22;10746;50.178;8.186;2022-09-03T02:09:13;15.30;99.90
21176;DHT22;10746;50.178;8.186;2022-09-03T02:11:40;15.30;99.90
21176;DHT22;10746;50.178;8.186;2022-09-03T02:14:08;15.40;99.90
21176;DHT22;10746;50.178;8.186;2022-09-03T02:16:34;15.40;99.90
21176;DHT22;10746;50.178;8.186;2022-09-03T02:19:06;15.30;99.90
21176;DHT22;10746;50.178;8.186;2022-09-03T02:21:37;15.20;99.90
21176;DHT22;10746;50.178;8.186;2022-09-03T02:24:06;15.20;99.90
21176;DHT22;10746;50.178;8.186;2022-09-03T02:26:34;15.20;99.90
21176;DHT22;10746;50.178;8.186;2022-09-03T02:29:04;15.20;99.90
21176;DHT22;10746;50.178;8.186;2022-09-03T02:31:30;15.20;99.90
21176;DHT22;10746;50.178;8.186;2022-09-03T02:33:57;15.10;99.90
21176;DHT22;10746;50.178;8.186;2022-09-03T02:36:28;15.20;99.90
21176;DHT22;10746;50.178;8.186;2022-09-03T02:38:56;15.10;99.90
21176;DHT22;10746;50.178;8.186;2022-09-03T02:41:23;15.20;99.90
21176;DHT22;10746;50.178;8.186;2022-09-03T02:43:55;15.20;99.90
21176;DHT22;10746;50.178;8.186;2022-09-03T02:46:28;15.30;99.90
21176;DHT22;10746;50.178;8.186;2022-09-03T02:48:58;15.20;99.90
21176;DHT22;10746;50.178;8.186;2022-09-03T02:51:26;15.20;99.90
21176;DHT22;10746;50.178;8.186;2022-09-03T02:53:52;15.10;99.90
21176;DHT22;10746;50.178;8.186;2022-09-03T02:56:19;15.20;99.90
21176;DHT22;10746;50.178;8.186;2022-09-03T02:58:51;15.20;99.90
21176;DHT22;10746;50.178;8.186;2022-09-03T03:01:17;15.10;99.90
21176;DHT22;10746;50.178;8.186;2022-09-03T03:03:44;15.20;99.90
21176;DHT22;10746;50.178;8.186;2022-09-03T03:06:11;15.20;99.90
21176;DHT22;10746;50.178;8.186;2022-09-03T03:08:40;15.20;99.90
21176;DHT22;10746;50.178;8.186;2022-09-03T03:11:08;15.30;99.90
21176;DHT22;10746;50.178;8.186;2022-09-03T03:13:35;15.30;99.90
21176;DHT22;10746;50.178;8.186;2022-09-03T03:16:04;15.40;99.90
21176;DHT22;10746;50.178;8.186;2022-09-03T03:18:31;15.30;99.90
21176;DHT22;10746;50.178;8.186;2022-09-03T03:21:03;15.30;99.90
21176;DHT22;10746;50.178;8.186;2022-09-03T03:23:30;15.30;99.90
21176;DHT22;10746;50.178;8.186;2022-09-03T03:26:01;15.30;99.90
21176;DHT22;10746;50.178;8.186;2022-09-03T03:28:27;15.30;99.90
21176;DHT22;10746;50.178;8.186;2022-09-03T03:30:56;15.30;99.90
21176;DHT22;10746;50.178;8.186;2022-09-03T03:33:23;15.40;99.90
21176;DHT22;10746;50.178;8.186;2022-09-03T03:35:50;15.40;99.90
21176;DHT22;10746;50.178;8.186;2022-09-03T03:38:17;15.30;99.90
21176;DHT22;10746;50.178;8.186;2022-09-03T03:40:43;15.30;99.90
21176;DHT22;10746;50.178;8.186;2022-09-03T03:43:11;15.40;99.90
21176;DHT22;10746;50.178;8.186;2022-09-03T03:45:38;15.40;99.90
21176;DHT22;10746;50.178;8.186;2022-09-03T03:48:05;15.30;99.90
21176;DHT22;10746;50.178;8.186;2022-09-03T03:50:31;15.40;99.90
21176;DHT22;10746;50.178;8.186;2022-09-03T03:52:58;15.30;99.90
21176;DHT22;10746;50.178;8.186;2022-09-03T03:55:25;15.40;99.90
21176;DHT22;10746;50.178;8.186;2022-09-03T03:57:52;15.40;99.90
21176;DHT22;10746;50.178;8.186;2022-09-03T04:00:20;15.30;99.90
21176;DHT22;10746;50.178;8.186;2022-09-03T04:02:47;15.30;99.90
21176;DHT22;10746;50.178;8.186;2022-09-03T04:05:14;15.30;99.90
21176;DHT22;10746;50.178;8.186;2022-09-03T04:07:40;15.30;99.90
21176;DHT22;10746;50.178;8.186;2022-09-03T04:10:09;15.30;99.90
21176;DHT22;10746;50.178;8.186;2022-09-03T04:12:35;15.30;99.90
21176;DHT22;10746;50.178;8.186;2022-09-03T04:15:02;15.30;99.90
21176;DHT22;10746;50.178;8.186;2022-09-03T04:17:30;15.30;99.90
21176;DHT22;10746;50.178;8.186;2022-09-03T04:19:57;15.40;99.90
21176;DHT22;10746;50.178;8.186;2022-09-03T04:22:24;15.20;99.90
21176;DHT22;10746;50.178;8.186;2022-09-03T04:24:50;15.20;99.90
21176;DHT22;10746;50.178;8.186;2022-09-03T04:27:17;15.30;99.90
21176;DHT22;10746;50.178;8.186;2022-09-03T04:29:44;15.20;99.90
21176;DHT22;10746;50.178;8.186;2022-09-03T04:32:11;15.20;99.90
21176;DHT22;10746;50.178;8.186;2022-09-03T04:34:56;15.40;99.90
21176;DHT22;10746;50.178;8.186;2022-09-03T04:37:23;15.20;99.90
21176;DHT22;10746;50.178;8.186;2022-09-03T04:39:49;15.40;99.90
21176;DHT22;10746;50.178;8.186;2022-09-03T04:42:17;15.20;99.90
21176;DHT22;10746;50.178;8.186;2022-09-03T04:44:43;15.20;99.90
21176;DHT22;10746;50.178;8.186;2022-09-03T04:47:10;15.30;99.90
21176;DHT22;10746;50.178;8.186;2022-09-03T04:49:37;15.30;99.90
21176;DHT22;10746;50.178;8.186;2022-09-03T04:52:05;15.30;99.90
21176;DHT22;10746;50.178;8.186;2022-09-03T04:54:32;15.20;99.90
21176;DHT22;10746;50.178;8.186;2022-09-03T04:56:59;15.10;99.90
21176;DHT22;10746;50.178;8.186;2022-09-03T04:59:25;15.10;99.90
21176;DHT22;10746;50.178;8.186;2022-09-03T05:01:52;15.20;99.90
21176;DHT22;10746;50.178;8.186;2022-09-03T05:04:20;15.20;99.90
21176;DHT22;10746;50.178;8.186;2022-09-03T05:06:47;15.20;99.90
21176;DHT22;10746;50.178;8.186;2022-09-03T05:09:15;15.20;99.90
21176;DHT22;10746;50.178;8.186;2022-09-03T05:11:42;15.20;99.90
21176;DHT22;10746;50.178;8.186;2022-09-03T05:14:08;15.20;99.90
21176;DHT22;10746;50.178;8.186;2022-09-03T05:16:37;15.10;99.90
21176;DHT22;10746;50.178;8.186;2022-09-03T05:19:04;15.20;99.90
21176;DHT22;10746;50.178;8.186;2022-09-03T05:21:32;15.20;99.90
21176;DHT22;10746;50.178;8.186;2022-09-03T05:24:00;15.20;99.90
21176;DHT22;10746;50.178;8.186;2022-09-03T05:26:30;15.10;99.90
21176;DHT22;10746;50.178;8.186;2022-09-03T05:28:59;15.10;99.90
21176;DHT22;10746;50.178;8.186;2022-09-03T05:31:28;15.10;99.90
21176;DHT22;10746;50.178;8.186;2022-09-03T05:33:57;15.10;99.90
21176;DHT22;10746;50.178;8.186;2022-09-03T05:36:26;15.10;99.90
21176;DHT22;10746;50.178;8.186;2022-09-03T05:38:54;15.10;99.90
21176;DHT22;10746;50.178;8.186;2022-09-03T05:41:21;15.10;99.90
21176;DHT22;10746;50.178;8.186;2022-09-03T05:43:52;15.10;99.90
21176;DHT22;10746;50.178;8.186;2022-09-03T05:46:21;15.10;99.90
21176;DHT22;10746;50.178;8.186;2022-09-03T05:48:51;15.10;99.90
21176;DHT22;10746;50.178;8.186;2022-09-03T05:51:18;15.10;99.90
21176;DHT22;10746;50.178;8.186;2022-09-03T05:53:46;15.10;99.90
21176;DHT22;10746;50.178;8.186;2022-09-03T05:56:15;15.10;99.90
21176;DHT22;10746;50.178;8.186;2022-09-03T05:58:43;15.10;99.90
21176;DHT22;10746;50.178;8.186;2022-09-03T06:01:13;15.10;99.90
21176;DHT22;10746;50.178;8.186;2022-09-03T06:03:41;15.20;99.90
21176;DHT22;10746;50.178;8.186;2022-09-03T06:06:08;15.10;99.90
21176;DHT22;10746;50.178;8.186;2022-09-03T06:08:36;15.10;99.90
21176;DHT22;10746;50.178;8.186;2022-09-03T06:11:04;15.20;99.90
21176;DHT22;10746;50.178;8.186;2022-09-03T06:13:32;15.20;99.90
21176;DHT22;10746;50.178;8.186;2022-09-03T06:16:00;15.20;99.90
21176;DHT22;10746;50.178;8.186;2022-09-03T06:18:29;15.00;99.90
21176;DHT22;10746;50.178;8.186;2022-09-03T06:20:56;15.00;99.90
21176;DHT22;10746;50.178;8.186;2022-09-03T06:23:23;15.10;99.90
21176;DHT22;10746;50.178;8.186;2022-09-03T06:25:59;15.20;99.90
21176;DHT22;10746;50.178;8.186;2022-09-03T06:28:25;15.00;99.90
21176;DHT22;10746;50.178;8.186;2022-09-03T06:30:52;15.00;99.90
21176;DHT22;10746;50.178;8.186;2022-09-03T06:33:19;15.00;99.90
21176;DHT22;10746;50.178;8.186;2022-09-03T06:35:53;14.70;99.90
21176;DHT22;10746;50.178;8.186;2022-09-03T06:38:22;14.30;99.90
21176;DHT22;10746;50.178;8.186;2022-09-03T06:40:52;14.00;99.90
21176;DHT22;10746;50.178;8.186;2022-09-03T06:43:19;13.80;99.90
21176;DHT22;10746;50.178;8.186;2022-09-03T06:45:52;13.70;99.90
21176;DHT22;10746;50.178;8.186;2022-09-03T06:48:20;13.60;99.90
21176;DHT22;10746;50.178;8.186;2022-09-03T06:50:54;13.50;99.90
21176;DHT22;10746;50.178;8.186;2022-09-03T06:53:23;13.50;99.90
21176;DHT22;10746;50.178;8.186;2022-09-03T06:55:54;13.40;99.90
21176;DHT22;10746;50.178;8.186;2022-09-03T06:58:20;13.40;99.90
21176;DHT22;10746;50.178;8.186;2022-09-03T07:00:48;13.40;99.90
21176;DHT22;10746;50.178;8.186;2022-09-03T07:03:15;13.40;99.90
21176;DHT22;10746;50.178;8.186;2022-09-03T07:05:43;13.50;99.90
21176;DHT22;10746;50.178;8.186;2022-09-03T07:08:11;13.50;99.90
21176;DHT22;10746;50.178;8.186;2022-09-03T07:10:38;13.50;99.90
21176;DHT22;10746;50.178;8.186;2022-09-03T07:13:05;13.50;99.90
21176;DHT22;10746;50.178;8.186;2022-09-03T07:15:32;13.50;99.90
21176;DHT22;10746;50.178;8.186;2022-09-03T07:17:59;13.60;99.90
21176;DHT22;10746;50.178;8.186;2022-09-03T07:20:25;13.60;99.90
21176;DHT22;10746;50.178;8.186;2022-09-03T07:22:54;13.70;99.90
21176;DHT22;10746;50.178;8.186;2022-09-03T07:25:23;13.70;99.90
21176;DHT22;10746;50.178;8.186;2022-09-03T07:27:50;13.70;99.90
21176;DHT22;10746;50.178;8.186;2022-09-03T07:30:17;13.70;99.90
21176;DHT22;10746;50.178;8.186;2022-09-03T07:32:45;13.70;99.90
21176;DHT22;10746;50.178;8.186;2022-09-03T07:35:12;13.80;99.90
21176;DHT22;10746;50.178;8.186;2022-09-03T07:37:40;13.80;99.90
21176;DHT22;10746;50.178;8.186;2022-09-03T07:40:08;13.90;99.90
21176;DHT22;10746;50.178;8.186;2022-09-03T07:42:36;13.70;99.90
21176;DHT22;10746;50.178;8.186;2022-09-03T07:45:06;13.60;99.90
21176;DHT22;10746;50.178;8.186;2022-09-03T07:47:35;13.60;99.90
21176;DHT22;10746;50.178;8.186;2022-09-03T07:50:02;13.60;99.90
21176;DHT22;10746;50.178;8.186;2022-09-03T07:52:30;13.70;99.90
21176;DHT22;10746;50.178;8.186;2022-09-03T07:54:57;13.70;99.90
21176;DHT22;10746;50.178;8.186;2022-09-03T07:57:24;13.80;99.90
21176;DHT22;10746;50.178;8.186;2022-09-03T07:59:52;13.90;99.90
21176;DHT22;10746;50.178;8.186;2022-09-03T08:02:19;13.90;99.90
21176;DHT22;10746;50.178;8.186;2022-09-03T08:04:46;14.00;99.90
21176;DHT22;10746;50.178;8.186;2022-09-03T08:07:12;13.90;99.90
21176;DHT22;10746;50.178;8.186;2022-09-03T08:09:39;14.10;99.90
21176;DHT22;10746;50.178;8.186;2022-09-03T08:12:06;14.10;99.90
21176;DHT22;10746;50.178;8.186;2022-09-03T08:14:33;14.10;99.90
21176;DHT22;10746;50.178;8.186;2022-09-03T08:17:01;14.10;99.90
21176;DHT22;10746;50.178;8.186;2022-09-03T08:19:28;14.00;99.90
21176;DHT22;10746;50.178;8.186;2022-09-03T08:21:55;14.30;99.90
21176;DHT22;10746;50.178;8.186;2022-09-03T08:24:21;14.40;99.90
21176;DHT22;10746;50.178;8.186;2022-09-03T08:26:50;14.40;99.90
21176;DHT22;10746;50.178;8.186;2022-09-03T08:29:17;14.50;99.90
21176;DHT22;10746;50.178;8.186;2022-09-03T08:31:44;14.60;99.90
21176;DHT22;10746;50.178;8.186;2022-09-03T08:34:12;14.60;99.90
21176;DHT22;10746;50.178;8.186;2022-09-03T08:36:41;14.50;99.90
21176;DHT22;10746;50.178;8.186;2022-09-03T08:39:09;14.50;99.90
21176;DHT22;10746;50.178;8.186;2022-09-03T08:41:52;14.60;99.90
21176;DHT22;10746;50.178;8.186;2022-09-03T08:44:25;14.80;99.90
21176;DHT22;10746;50.178;8.186;2022-09-03T08:46:57;14.90;99.90
21176;DHT22;10746;50.178;8.186;2022-09-03T08:49:30;15.00;99.90
21176;DHT22;10746;50.178;8.186;2022-09-03T08:52:02;15.10;99.90
21176;DHT22;10746;50.178;8.186;2022-09-03T08:54:31;15.10;99.90
21176;DHT22;10746;50.178;8.186;2022-09-03T08:57:00;15.20;99.90
21176;DHT22;10746;50.178;8.186;2022-09-03T08:59:29;15.20;99.90
21176;DHT22;10746;50.178;8.186;2022-09-03T09:01:58;15.40;99.90
21176;DHT22;10746;50.178;8.186;2022-09-03T09:04:43;15.40;99.90
21176;DHT22;10746;50.178;8.186;2022-09-03T09:07:17;15.70;99.90
21176;DHT22;10746;50.178;8.186;2022-09-03T09:09:49;16.10;99.90
21176;DHT22;10746;50.178;8.186;2022-09-03T09:12:25;16.40;99.90
21176;DHT22;10746;50.178;8.186;2022-09-03T09:15:04;16.60;99.90
21176;DHT22;10746;50.178;8.186;2022-09-03T09:17:48;16.70;99.90
21176;DHT22;10746;50.178;8.186;2022-09-03T09:20:25;16.60;99.90
21176;DHT22;10746;50.178;8.186;2022-09-03T09:23:00;16.80;99.90
21176;DHT22;10746;50.178;8.186;2022-09-03T09:25:28;16.70;99.90
21176;DHT22;10746;50.178;8.186;2022-09-03T09:27:59;16.00;99.90
21176;DHT22;10746;50.178;8.186;2022-09-03T09:30:29;15.80;99.90
21176;DHT22;10746;50.178;8.186;2022-09-03T09:32:56;15.70;99.90
21176;DHT22;10746;50.178;8.186;2022-09-03T09:35:26;15.70;99.90
21176;DHT22;10746;50.178;8.186;2022-09-03T09:37:55;15.60;99.90
21176;DHT22;10746;50.178;8.186;2022-09-03T09:40:30;15.40;99.90
21176;DHT22;10746;50.178;8.186;2022-09-03T09:43:05;15.50;99.90
21176;DHT22;10746;50.178;8.186;2022-09-03T09:45:32;15.60;99.90
21176;DHT22;10746;50.178;8.186;2022-09-03T09:48:01;15.50;99.90
21176;DHT22;10746;50.178;8.186;2022-09-03T09:50:29;15.60;99.90
21176;DHT22;10746;50.178;8.186;2022-09-03T09:53:00;15.70;99.90
21176;DHT22;10746;50.178;8.186;2022-09-03T09:55:29;15.70;99.90
21176;DHT22;10746;50.178;8.186;2022-09-03T09:58:04;15.90;99.90
21176;DHT22;10746;50.178;8.186;2022-09-03T10:00:33;16.10;99.90
21176;DHT22;10746;50.178;8.186;2022-09-03T10:03:06;16.20;99.90
21176;DHT22;10746;50.178;8.186;2022-09-03T10:05:36;16.10;99.90
21176;DHT22;10746;50.178;8.186;2022-09-03T10:08:16;16.10;99.90
21176;DHT22;10746;50.178;8.186;2022-09-03T10:10:46;16.00;99.90
21176;DHT22;10746;50.178;8.186;2022-09-03T10:13:17;16.00;99.90
21176;DHT22;10746;50.178;8.186;2022-09-03T10:15:49;16.10;99.90
21176;DHT22;10746;50.178;8.186;2022-09-03T10:18:21;16.20;99.90
21176;DHT22;10746;50.178;8.186;2022-09-03T10:20:59;16.10;99.90
21176;DHT22;10746;50.178;8.186;2022-09-03T10:23:34;16.20;99.90
21176;DHT22;10746;50.178;8.186;2022-09-03T10:26:07;16.30;99.90
21176;DHT22;10746;50.178;8.186;2022-09-03T10:28:38;16.50;99.90
21176;DHT22;10746;50.178;8.186;2022-09-03T10:34:07;16.70;99.90
21176;DHT22;10746;50.178;8.186;2022-09-03T10:36:42;16.70;99.90
21176;DHT22;10746;50.178;8.186;2022-09-03T10:39:16;16.80;99.90
21176;DHT22;10746;50.178;8.186;2022-09-03T10:41:57;16.80;99.90
21176;DHT22;10746;50.178;8.186;2022-09-03T10:44:43;16.70;99.90
21176;DHT22;10746;50.178;8.186;2022-09-03T10:47:36;16.70;99.90
21176;DHT22;10746;50.178;8.186;2022-09-03T10:50:11;16.70;99.90
21176;DHT22;10746;50.178;8.186;2022-09-03T10:52:55;17.00;99.90
21176;DHT22;10746;50.178;8.186;2022-09-03T10:55:33;17.00;99.90
21176;DHT22;10746;50.178;8.186;2022-09-03T10:58:13;17.20;99.90
21176;DHT22;10746;50.178;8.186;2022-09-03T11:00:50;17.50;99.90
21176;DHT22;10746;50.178;8.186;2022-09-03T11:03:42;17.70;99.90
21176;DHT22;10746;50.178;8.186;2022-09-03T11:06:12;17.80;99.90
21176;DHT22;10746;50.178;8.186;2022-09-03T11:08:46;17.50;99.90
21176;DHT22;10746;50.178;8.186;2022-09-03T11:11:16;17.90;99.90
21176;DHT22;10746;50.178;8.186;2022-09-03T11:13:50;18.20;99.90
21176;DHT22;10746;50.178;8.186;2022-09-03T11:16:21;18.60;99.90
21176;DHT22;10746;50.178;8.186;2022-09-03T11:18:54;19.70;99.90
21176;DHT22;10746;50.178;8.186;2022-09-03T11:21:23;19.80;99.90
21176;DHT22;10746;50.178;8.186;2022-09-03T11:23:57;20.00;99.90
21176;DHT22;10746;50.178;8.186;2022-09-03T11:26:28;19.70;99.90
21176;DHT22;10746;50.178;8.186;2022-09-03T11:28:58;19.50;99.90
21176;DHT22;10746;50.178;8.186;2022-09-03T11:31:36;19.70;99.90
21176;DHT22;10746;50.178;8.186;2022-09-03T11:34:06;19.60;99.90
21176;DHT22;10746;50.178;8.186;2022-09-03T11:36:35;19.00;99.90
21176;DHT22;10746;50.178;8.186;2022-09-03T11:39:17;18.30;99.90
21176;DHT22;10746;50.178;8.186;2022-09-03T11:41:56;18.70;99.90
21176;DHT22;10746;50.178;8.186;2022-09-03T11:44:23;19.20;99.90
21176;DHT22;10746;50.178;8.186;2022-09-03T11:47:00;19.60;99.90
21176;DHT22;10746;50.178;8.186;2022-09-03T11:49:28;20.20;99.90
21176;DHT22;10746;50.178;8.186;2022-09-03T11:51:58;20.20;99.90
21176;DHT22;10746;50.178;8.186;2022-09-03T11:54:31;20.50;99.90
21176;DHT22;10746;50.178;8.186;2022-09-03T11:57:11;20.40;99.90
21176;DHT22;10746;50.178;8.186;2022-09-03T11:59:41;21.60;99.90
21176;DHT22;10746;50.178;8.186;2022-09-03T12:02:19;20.50;99.90
21176;DHT22;10746;50.178;8.186;2022-09-03T12:04:59;20.10;99.90
21176;DHT22;10746;50.178;8.186;2022-09-03T12:07:57;20.20;99.90
21176;DHT22;10746;50.178;8.186;2022-09-03T12:10:35;20.80;99.90
21176;DHT22;10746;50.178;8.186;2022-09-03T12:13:19;21.20;99.90
21176;DHT22;10746;50.178;8.186;2022-09-03T12:16:09;21.40;99.90
21176;DHT22;10746;50.178;8.186;2022-09-03T12:18:39;20.30;99.90
21176;DHT22;10746;50.178;8.186;2022-09-03T12:21:08;20.60;99.90
21176;DHT22;10746;50.178;8.186;2022-09-03T12:23:41;21.40;99.90
21176;DHT22;10746;50.178;8.186;2022-09-03T12:26:11;22.40;99.90
21176;DHT22;10746;50.178;8.186;2022-09-03T12:28:40;22.80;99.90
21176;DHT22;10746;50.178;8.186;2022-09-03T12:31:08;22.80;99.90
21176;DHT22;10746;50.178;8.186;2022-09-03T12:33:40;22.00;99.90
21176;DHT22;10746;50.178;8.186;2022-09-03T12:36:08;21.70;99.90
21176;DHT22;10746;50.178;8.186;2022-09-03T12:38:35;22.50;99.90
21176;DHT22;10746;50.178;8.186;2022-09-03T12:41:02;23.40;99.90
21176;DHT22;10746;50.178;8.186;2022-09-03T12:43:30;21.90;99.90
21176;DHT22;10746;50.178;8.186;2022-09-03T12:45:57;21.70;99.90
21176;DHT22;10746;50.178;8.186;2022-09-03T12:48:23;21.30;99.90
21176;DHT22;10746;50.178;8.186;2022-09-03T12:51:00;21.40;99.90
21176;DHT22;10746;50.178;8.186;2022-09-03T12:53:28;21.30;99.90
21176;DHT22;10746;50.178;8.186;2022-09-03T12:55:58;21.90;99.90
21176;DHT22;10746;50.178;8.186;2022-09-03T12:58:30;21.70;99.90
21176;DHT22;10746;50.178;8.186;2022-09-03T13:01:05;21.10;99.90
21176;DHT22;10746;50.178;8.186;2022-09-03T13:03:43;21.40;99.90
21176;DHT22;10746;50.178;8.186;2022-09-03T13:06:13;22.10;99.90
21176;DHT22;10746;50.178;8.186;2022-09-03T13:08:46;23.10;99.90
21176;DHT22;10746;50.178;8.186;2022-09-03T13:11:16;23.90;99.90
21176;DHT22;10746;50.178;8.186;2022-09-03T13:13:53;24.50;99.90
21176;DHT22;10746;50.178;8.186;2022-09-03T13:16:45;24.50;99.90
21176;DHT22;10746;50.178;8.186;2022-09-03T13:19:21;23.40;99.90
21176;DHT22;10746;50.178;8.186;2022-09-03T13:21:57;22.30;99.90
21176;DHT22;10746;50.178;8.186;2022-09-03T13:24:46;21.80;99.90
21176;DHT22;10746;50.178;8.186;2022-09-03T13:27:23;22.30;99.90
21176;DHT22;10746;50.178;8.186;2022-09-03T13:30:03;23.50;99.90
21176;DHT22;10746;50.178;8.186;2022-09-03T13:32:38;23.60;99.90
21176;DHT22;10746;50.178;8.186;2022-09-03T13:35:11;23.00;99.90
21176;DHT22;10746;50.178;8.186;2022-09-03T13:37:44;22.20;99.90
21176;DHT22;10746;50.178;8.186;2022-09-03T13:40:15;21.40;99.90
21176;DHT22;10746;50.178;8.186;2022-09-03T13:42:49;20.90;99.90
21176;DHT22;10746;50.178;8.186;2022-09-03T13:45:28;20.90;99.90
21176;DHT22;10746;50.178;8.186;2022-09-03T13:47:59;20.70;99.90
21176;DHT22;10746;50.178;8.186;2022-09-03T13:50:47;20.70;99.90
21176;DHT22;10746;50.178;8.186;2022-09-03T13:53:26;20.70;99.90
21176;DHT22;10746;50.178;8.186;2022-09-03T13:56:00;20.60;99.90
21176;DHT22;10746;50.178;8.186;2022-09-03T13:58:33;20.40;99.90
21176;DHT22;10746;50.178;8.186;2022-09-03T14:01:11;20.40;99.90
21176;DHT22;10746;50.178;8.186;2022-09-03T14:03:44;20.40;99.90
21176;DHT22;10746;50.178;8.186;2022-09-03T14:06:19;20.40;99.90
21176;DHT22;10746;50.178;8.186;2022-09-03T14:09:03;20.40;99.90
21176;DHT22;10746;50.178;8.186;2022-09-03T14:11:45;20.30;99.90
21176;DHT22;10746;50.178;8.186;2022-09-03T14:14:22;20.20;99.90
21176;DHT22;10746;50.178;8.186;2022-09-03T14:16:58;20.30;99.90
21176;DHT22;10746;50.178;8.186;2022-09-03T14:19:36;20.30;99.90
21176;DHT22;10746;50.178;8.186;2022-09-03T14:22:08;20.70;99.90
21176;DHT22;10746;50.178;8.186;2022-09-03T14:24:44;20.60;99.90
21176;DHT22;10746;50.178;8.186;2022-09-03T14:27:12;20.90;99.90
21176;DHT22;10746;50.178;8.186;2022-09-03T14:29:50;21.40;99.90
21176;DHT22;10746;50.178;8.186;2022-09-03T14:32:27;22.40;99.90
21176;DHT22;10746;50.178;8.186;2022-09-03T14:35:11;23.60;99.90
21176;DHT22;10746;50.178;8.186;2022-09-03T14:37:58;23.30;99.90
21176;DHT22;10746;50.178;8.186;2022-09-03T14:40:33;23.70;99.90
21176;DHT22;10746;50.178;8.186;2022-09-03T14:43:17;23.40;99.90
21176;DHT22;10746;50.178;8.186;2022-09-03T14:46:00;22.50;99.90
21176;DHT22;10746;50.178;8.186;2022-09-03T14:48:52;21.80;99.90
21176;DHT22;10746;50.178;8.186;2022-09-03T14:51:32;21.10;99.90
21176;DHT22;10746;50.178;8.186;2022-09-03T14:54:26;20.50;99.90
21176;DHT22;10746;50.178;8.186;2022-09-03T14:57:10;20.90;99.90
21176;DHT22;10746;50.178;8.186;2022-09-03T14:59:54;21.80;99.90
21176;DHT22;10746;50.178;8.186;2022-09-03T15:02:47;21.80;99.90
21176;DHT22;10746;50.178;8.186;2022-09-03T15:05:32;22.20;99.90
21176;DHT22;10746;50.178;8.186;2022-09-03T15:08:08;22.20;99.90
21176;DHT22;10746;50.178;8.186;2022-09-03T15:10:44;21.80;99.90
21176;DHT22;10746;50.178;8.186;2022-09-03T15:13:16;21.30;99.90
21176;DHT22;10746;50.178;8.186;2022-09-03T15:15:58;21.00;99.90
21176;DHT22;10746;50.178;8.186;2022-09-03T15:18:36;20.90;99.90
21176;DHT22;10746;50.178;8.186;2022-09-03T15:21:19;20.80;99.90
21176;DHT22;10746;50.178;8.186;2022-09-03T15:23:58;20.90;99.90
21176;DHT22;10746;50.178;8.186;2022-09-03T15:26:46;21.30;99.90
21176;DHT22;10746;50.178;8.186;2022-09-03T15:29:31;21.50;99.90
21176;DHT22;10746;50.178;8.186;2022-09-03T15:32:05;21.20;99.90
21176;DHT22;10746;50.178;8.186;2022-09-03T15:34:59;20.90;99.90
21176;DHT22;10746;50.178;8.186;2022-09-03T15:37:35;20.60;99.90
21176;DHT22;10746;50.178;8.186;2022-09-03T15:40:07;20.40;99.90
21176;DHT22;10746;50.178;8.186;2022-09-03T15:42:35;20.40;99.90
21176;DHT22;10746;50.178;8.186;2022-09-03T15:45:06;20.30;99.90
21176;DHT22;10746;50.178;8.186;2022-09-03T15:47:50;20.20;99.90
21176;DHT22;10746;50.178;8.186;2022-09-03T15:50:28;20.10;99.90
21176;DHT22;10746;50.178;8.186;2022-09-03T15:53:01;20.10;99.90
21176;DHT22;10746;50.178;8.186;2022-09-03T15:55:32;20.20;99.90
21176;DHT22;10746;50.178;8.186;2022-09-03T15:58:06;20.20;99.90
21176;DHT22;10746;50.178;8.186;2022-09-03T16:00:49;20.30;99.90
21176;DHT22;10746;50.178;8.186;2022-09-03T16:03:21;20.20;99.90
21176;DHT22;10746;50.178;8.186;2022-09-03T16:06:01;20.10;99.90
21176;DHT22;10746;50.178;8.186;2022-09-03T16:08:36;20.10;99.90